Time;durP1;ratioP1;P1;durP2;ratioP2;P2;SDS_P1;SDS_P2;PMS_P1;PMS_P2;Temp;Humidity;BMP_temperature;BMP_pressure;BME280_temperature;BME280_humidity;BME280_pressure;Samples;Min_cycle;Max_cycle;Signal;HPM_P1;HPM_P2
2021/04/19 00:01:33;;;;;;;0.93;0.93;;;5.60;99.90;;;;;;4989336;28;20176;-69
2021/04/19 00:03:59;;;;;;;0.70;0.70;;;5.60;99.90;;;;;;4989305;28;20234;-69
2021/04/19 00:06:25;;;;;;;0.80;0.73;;;5.60;99.90;;;;;;4990685;28;20190;-69
2021/04/19 00:08:52;;;;;;;0.52;0.52;;;5.70;99.90;;;;;;4989411;28;20179;-69
2021/04/19 00:11:18;;;;;;;0.10;0.10;;;5.60;99.90;;;;;;4989398;28;20514;-69
2021/04/19 00:13:44;;;;;;;0.15;0.15;;;5.70;99.90;;;;;;4989467;28;20199;-69
2021/04/19 00:16:10;;;;;;;0.85;0.60;;;5.70;99.90;;;;;;4990353;28;20160;-69
2021/04/19 00:18:37;;;;;;;0.40;0.40;;;5.80;99.90;;;;;;4988313;28;20180;-69
2021/04/19 00:21:04;;;;;;;0.35;0.35;;;5.80;99.90;;;;;;4988327;28;20262;-70
2021/04/19 00:23:29;;;;;;;0.20;0.20;;;5.90;99.90;;;;;;4990259;28;20254;-70
2021/04/19 00:25:55;;;;;;;0.20;0.20;;;5.90;99.90;;;;;;4990241;28;20629;-69
2021/04/19 00:28:21;;;;;;;0.15;0.15;;;6.10;99.90;;;;;;4988830;28;20171;-69
2021/04/19 00:30:47;;;;;;;0.20;0.20;;;6.20;99.90;;;;;;4990130;28;20179;-70
2021/04/19 00:33:13;;;;;;;1.20;1.15;;;6.30;99.90;;;;;;4989874;28;20233;-69
2021/04/19 00:35:40;;;;;;;1.00;0.73;;;6.40;99.90;;;;;;4989923;28;20160;-69
2021/04/19 00:38:06;;;;;;;0.00;0.00;;;6.40;99.90;;;;;;4990058;28;20163;-69
2021/04/19 00:40:33;;;;;;;0.10;0.10;;;6.40;99.90;;;;;;4989999;28;20197;-69
2021/04/19 00:42:58;;;;;;;0.13;0.13;;;6.60;99.90;;;;;;4989908;28;20179;-69
2021/04/19 00:45:25;;;;;;;0.68;0.68;;;6.60;99.90;;;;;;4989889;28;20222;-69
2021/04/19 00:47:51;;;;;;;0.52;0.52;;;6.90;99.90;;;;;;4989877;28;20164;-70
2021/04/19 00:50:22;;;;;;;0.10;0.10;;;6.90;99.90;;;;;;4989875;28;20171;-69
2021/04/19 00:52:48;;;;;;;1.20;0.52;;;7.00;99.90;;;;;;4989807;28;20187;-69
2021/04/19 00:55:15;;;;;;;0.65;0.65;;;7.10;99.90;;;;;;4988411;28;20195;-70
2021/04/19 00:57:42;;;;;;;0.85;0.85;;;7.10;99.90;;;;;;4989970;28;20187;-70
2021/04/19 01:00:15;;;;;;;0.10;0.10;;;7.10;99.90;;;;;;4989883;28;20159;-70
2021/04/19 01:02:42;;;;;;;0.10;0.10;;;7.10;99.90;;;;;;4990027;28;20167;-71
2021/04/19 01:05:15;;;;;;;0.70;0.70;;;7.20;99.90;;;;;;4989810;28;20279;-69
2021/04/19 01:07:41;;;;;;;0.45;0.45;;;7.30;99.90;;;;;;4989852;28;20191;-69
2021/04/19 01:10:08;;;;;;;0.10;0.10;;;7.30;99.90;;;;;;4989621;28;20160;-70
2021/04/19 01:12:34;;;;;;;0.60;0.28;;;7.30;99.90;;;;;;4987972;28;20202;-69
2021/04/19 01:15:00;;;;;;;0.50;0.50;;;7.30;99.90;;;;;;4987863;28;20195;-69
2021/04/19 01:17:26;;;;;;;0.10;0.10;;;7.30;99.90;;;;;;4989333;28;20171;-69
2021/04/19 01:19:52;;;;;;;0.13;0.13;;;7.30;99.90;;;;;;4989176;28;20246;-70
2021/04/19 01:22:18;;;;;;;0.20;0.20;;;7.30;99.90;;;;;;4989321;28;20215;-70
2021/04/19 01:24:44;;;;;;;0.17;0.17;;;7.30;99.90;;;;;;4987887;28;20229;-69
2021/04/19 01:27:11;;;;;;;0.30;0.30;;;7.30;99.90;;;;;;4989184;28;20163;-70
2021/04/19 01:29:37;;;;;;;0.15;0.15;;;7.30;99.90;;;;;;4989178;28;20171;-69
2021/04/19 01:32:03;;;;;;;0.25;0.25;;;7.20;99.90;;;;;;4987392;28;20250;-69
2021/04/19 01:34:29;;;;;;;0.10;0.10;;;7.20;99.90;;;;;;4987072;28;20214;-70
2021/04/19 01:36:55;;;;;;;0.88;0.43;;;7.30;99.90;;;;;;4987800;28;20618;-70
2021/04/19 01:39:21;;;;;;;0.20;0.20;;;7.20;99.90;;;;;;4987542;28;20159;-70
2021/04/19 01:41:47;;;;;;;0.10;0.10;;;7.20;99.90;;;;;;4988140;28;20227;-70
2021/04/19 01:44:14;;;;;;;0.20;0.20;;;7.20;99.90;;;;;;4987621;28;20253;-70
2021/04/19 01:46:41;;;;;;;0.68;0.68;;;7.20;99.90;;;;;;4987692;28;20199;-70
2021/04/19 01:49:18;;;;;;;0.30;0.30;;;7.20;99.90;;;;;;4988919;28;20165;-70
2021/04/19 01:51:45;;;;;;;0.43;0.43;;;7.20;99.90;;;;;;4989058;28;20191;-70
2021/04/19 01:54:11;;;;;;;0.82;0.82;;;7.10;99.90;;;;;;4989128;28;20214;-70
2021/04/19 01:56:38;;;;;;;0.15;0.15;;;7.10;99.90;;;;;;4989345;28;20155;-70
2021/04/19 01:59:06;;;;;;;0.17;0.17;;;7.10;99.90;;;;;;4989051;28;20160;-70
2021/04/19 02:01:34;;;;;;;0.10;0.10;;;7.10;99.90;;;;;;4987470;28;20278;-70
2021/04/19 02:04:18;;;;;;;0.10;0.10;;;7.10;99.90;;;;;;4988660;28;20255;-70
2021/04/19 02:07:02;;;;;;;0.25;0.25;;;7.10;99.90;;;;;;4988820;28;20231;-70
2021/04/19 02:09:33;;;;;;;0.55;0.55;;;7.10;99.90;;;;;;4987361;28;20195;-70
2021/04/19 02:12:21;;;;;;;0.20;0.20;;;7.10;99.90;;;;;;4988735;28;20237;-70
2021/04/19 02:15:10;;;;;;;0.17;0.17;;;7.10;99.90;;;;;;4988719;28;20195;-70
2021/04/19 02:17:57;;;;;;;0.30;0.30;;;7.10;99.90;;;;;;4988794;28;20156;-70
2021/04/19 02:20:37;;;;;;;0.10;0.10;;;7.10;99.90;;;;;;4988472;28;20308;-69
2021/04/19 02:23:12;;;;;;;0.90;0.75;;;7.10;99.90;;;;;;4988680;28;20540;-70
2021/04/19 02:25:43;;;;;;;0.10;0.10;;;7.10;99.90;;;;;;4987171;28;20186;-70
2021/04/19 02:28:23;;;;;;;0.20;0.20;;;7.00;99.90;;;;;;4988581;28;20243;-70
2021/04/19 02:30:53;;;;;;;0.38;0.38;;;7.00;99.90;;;;;;4988585;28;20163;-70
2021/04/19 02:33:21;;;;;;;0.10;0.10;;;7.00;99.90;;;;;;4987142;28;20278;-70
2021/04/19 02:35:49;;;;;;;0.20;0.20;;;7.00;99.90;;;;;;4987093;28;20613;-69
2021/04/19 02:38:22;;;;;;;0.03;0.03;;;7.00;99.90;;;;;;4987323;28;20167;-69
2021/04/19 02:40:49;;;;;;;0.30;0.30;;;7.00;99.90;;;;;;4988632;28;20238;-69
2021/04/19 02:43:17;;;;;;;0.35;0.35;;;7.00;99.90;;;;;;4990358;28;20194;-70
2021/04/19 02:45:44;;;;;;;0.20;0.20;;;7.00;99.90;;;;;;4992051;28;20202;-70
2021/04/19 02:48:13;;;;;;;0.10;0.10;;;7.10;99.90;;;;;;4990677;28;20175;-70
2021/04/19 02:50:39;;;;;;;0.20;0.20;;;7.10;99.90;;;;;;4990488;28;20182;-69
2021/04/19 02:53:05;;;;;;;0.43;0.43;;;7.00;99.90;;;;;;4990299;28;20684;-69
2021/04/19 02:55:33;;;;;;;0.38;0.38;;;7.10;99.90;;;;;;4990686;28;20168;-69
2021/04/19 02:58:04;;;;;;;0.10;0.10;;;7.10;99.90;;;;;;4991713;28;20174;-69
2021/04/19 03:00:47;;;;;;;1.13;1.08;;;7.10;99.90;;;;;;4991353;28;20155;-68
2021/04/19 03:03:20;;;;;;;0.47;0.47;;;7.10;99.90;;;;;;4991774;28;20159;-72
2021/04/19 03:05:47;;;;;;;0.20;0.20;;;7.10;99.90;;;;;;4990374;28;20182;-70
2021/04/19 03:08:17;;;;;;;0.80;0.80;;;7.10;99.90;;;;;;4990317;28;20170;-70
2021/04/19 03:10:54;;;;;;;1.65;1.00;;;7.20;99.90;;;;;;4990295;28;20246;-70
2021/04/19 03:13:22;;;;;;;0.70;0.70;;;7.10;99.90;;;;;;4991147;28;20202;-70
2021/04/19 03:15:51;;;;;;;0.10;0.10;;;7.10;99.90;;;;;;4989946;28;20172;-70
2021/04/19 03:18:18;;;;;;;0.00;0.00;;;7.10;99.90;;;;;;4989997;28;20175;-69
2021/04/19 03:21:03;;;;;;;0.50;0.50;;;7.10;99.90;;;;;;4989643;28;20595;-70
2021/04/19 03:23:39;;;;;;;0.15;0.15;;;7.10;99.90;;;;;;4991106;28;20191;-70
2021/04/19 03:26:07;;;;;;;0.20;0.20;;;7.10;99.90;;;;;;4991194;28;20167;-70
2021/04/19 03:28:34;;;;;;;0.10;0.10;;;7.10;99.90;;;;;;4991322;28;20174;-70
2021/04/19 03:31:05;;;;;;;0.10;0.10;;;7.10;99.90;;;;;;4989752;28;20178;-70
2021/04/19 03:33:33;;;;;;;0.10;0.10;;;7.20;99.90;;;;;;4989426;28;20226;-70
2021/04/19 03:36:01;;;;;;;0.20;0.20;;;7.20;99.90;;;;;;4990917;28;20521;-69
2021/04/19 03:38:29;;;;;;;0.55;0.55;;;7.20;99.90;;;;;;4990692;28;20166;-69
2021/04/19 03:40:56;;;;;;;0.82;0.82;;;7.20;99.90;;;;;;4990685;28;20169;-69
2021/04/19 03:43:23;;;;;;;3.10;0.60;;;7.20;99.90;;;;;;4990442;28;20195;-71
2021/04/19 03:45:54;;;;;;;0.10;0.10;;;7.20;99.90;;;;;;4990482;28;20178;-69
2021/04/19 03:48:22;;;;;;;0.52;0.50;;;7.20;99.90;;;;;;4990482;28;20182;-70
2021/04/19 03:51:10;;;;;;;0.20;0.20;;;7.20;99.90;;;;;;4990570;28;20160;-70
2021/04/19 03:53:38;;;;;;;0.35;0.35;;;7.20;99.90;;;;;;4990041;28;20218;-70
2021/04/19 03:56:05;;;;;;;0.20;0.20;;;7.20;99.90;;;;;;4990564;28;20171;-69
2021/04/19 03:58:33;;;;;;;0.75;0.75;;;7.30;99.90;;;;;;4990148;28;20163;-70
2021/04/19 04:01:06;;;;;;;0.10;0.10;;;7.30;99.90;;;;;;4990375;28;20163;-72
2021/04/19 04:03:34;;;;;;;0.30;0.30;;;7.30;99.90;;;;;;4990248;28;20229;-69
2021/04/19 04:06:01;;;;;;;0.93;0.93;;;7.30;99.90;;;;;;4990133;28;20163;-70
2021/04/19 04:08:28;;;;;;;0.57;0.57;;;7.30;99.90;;;;;;4988545;28;20535;-70
2021/04/19 04:10:56;;;;;;;0.20;0.20;;;7.30;99.90;;;;;;4988654;28;20163;-70
2021/04/19 04:13:23;;;;;;;0.30;0.30;;;7.30;99.90;;;;;;4990028;28;20211;-70
2021/04/19 04:15:59;;;;;;;0.45;0.45;;;7.20;99.90;;;;;;4989896;28;20175;-70
2021/04/19 04:18:26;;;;;;;0.20;0.20;;;7.20;99.90;;;;;;4990172;28;20227;-70
2021/04/19 04:20:53;;;;;;;0.20;0.20;;;7.30;99.90;;;;;;4989499;28;20238;-71
2021/04/19 04:23:19;;;;;;;0.30;0.30;;;7.30;99.90;;;;;;4989424;28;20201;-69
2021/04/19 04:25:46;;;;;;;0.20;0.20;;;7.30;99.90;;;;;;4988518;28;20175;-70
2021/04/19 04:28:13;;;;;;;0.35;0.35;;;7.30;99.90;;;;;;4989981;28;20163;-70
2021/04/19 04:30:39;;;;;;;0.20;0.20;;;7.30;99.90;;;;;;4990051;28;20164;-69
2021/04/19 04:33:07;;;;;;;1.20;0.55;;;7.30;99.90;;;;;;4988299;28;20218;-70
2021/04/19 04:35:35;;;;;;;0.13;0.13;;;7.20;99.90;;;;;;4988499;28;20182;-69
2021/04/19 04:38:01;;;;;;;0.10;0.10;;;7.30;99.90;;;;;;4989563;28;20156;-69
2021/04/19 04:40:29;;;;;;;0.15;0.15;;;7.30;99.90;;;;;;4989526;28;20152;-69
2021/04/19 04:43:04;;;;;;;2.17;1.27;;;7.20;99.90;;;;;;4989346;28;20163;-69
2021/04/19 04:45:31;;;;;;;0.32;0.32;;;7.20;99.90;;;;;;4989327;28;20175;-69
2021/04/19 04:47:59;;;;;;;0.00;0.00;;;7.30;99.90;;;;;;4989246;28;20528;-69
2021/04/19 04:50:34;;;;;;;0.63;0.63;;;7.40;99.90;;;;;;4989249;28;20187;-69
2021/04/19 04:53:08;;;;;;;0.45;0.45;;;7.40;99.90;;;;;;4989123;28;20205;-69
2021/04/19 04:55:37;;;;;;;0.68;0.68;;;7.40;99.90;;;;;;4989112;28;20161;-69
2021/04/19 04:58:05;;;;;;;0.20;0.20;;;7.50;99.90;;;;;;4988735;28;20175;-69
2021/04/19 05:00:34;;;;;;;0.20;0.20;;;7.50;99.90;;;;;;4989117;28;20160;-69
2021/04/19 05:03:02;;;;;;;0.75;0.50;;;7.60;99.90;;;;;;4988798;28;20159;-69
2021/04/19 05:05:28;;;;;;;2.60;0.65;;;7.60;99.90;;;;;;4988537;28;20227;-69
2021/04/19 05:07:55;;;;;;;0.10;0.10;;;7.60;99.90;;;;;;4987296;28;20171;-69
2021/04/19 05:10:22;;;;;;;0.10;0.10;;;7.60;99.90;;;;;;4988834;28;20163;-69
2021/04/19 05:12:47;;;;;;;0.20;0.20;;;7.70;99.90;;;;;;4989023;28;20282;-69
2021/04/19 05:15:13;;;;;;;0.10;0.10;;;7.70;99.90;;;;;;4979325;28;20203;-71
2021/04/19 05:17:44;;;;;;;0.22;0.22;;;7.80;99.90;;;;;;4983136;28;20188;-71
2021/04/19 05:20:11;;;;;;;0.80;0.60;;;7.80;99.90;;;;;;4982578;28;20745;-70
2021/04/19 05:22:38;;;;;;;0.10;0.10;;;7.90;99.90;;;;;;4987213;28;20182;-70
2021/04/19 05:25:05;;;;;;;0.55;0.43;;;7.90;99.90;;;;;;4986345;28;20231;-72
2021/04/19 05:27:32;;;;;;;0.17;0.17;;;8.00;99.90;;;;;;4983868;28;20176;-69
2021/04/19 05:29:59;;;;;;;0.43;0.43;;;8.00;99.90;;;;;;4969217;28;20204;-70
2021/04/19 05:32:27;;;;;;;0.38;0.38;;;8.00;99.90;;;;;;4984275;28;20203;-70
2021/04/19 05:34:54;;;;;;;0.15;0.15;;;8.00;99.90;;;;;;4988807;28;20199;-70
2021/04/19 05:37:20;;;;;;;0.20;0.20;;;8.00;99.90;;;;;;4987341;28;20178;-70
2021/04/19 05:39:46;;;;;;;0.30;0.30;;;8.00;99.90;;;;;;4988954;28;20170;-69
2021/04/19 05:42:14;;;;;;;0.65;0.65;;;8.10;99.90;;;;;;4987101;28;20206;-70
2021/04/19 05:44:41;;;;;;;0.10;0.10;;;8.20;99.90;;;;;;4988756;28;20263;-70
2021/04/19 05:47:08;;;;;;;0.13;0.13;;;8.20;99.90;;;;;;4988656;28;20174;-70
2021/04/19 05:49:34;;;;;;;0.98;0.35;;;8.30;99.90;;;;;;4988554;28;20181;-71
2021/04/19 05:52:03;;;;;;;0.40;0.40;;;8.30;99.90;;;;;;4973686;28;20286;-69
2021/04/19 05:54:30;;;;;;;0.65;0.65;;;8.30;99.90;;;;;;4969046;28;20188;-69
2021/04/19 05:57:35;;;;;;;0.15;0.15;;;8.30;99.90;;;;;;4978712;28;20604;-69
2021/04/19 06:00:07;;;;;;;0.20;0.20;;;8.40;99.90;;;;;;4977772;28;20195;-70
2021/04/19 06:02:43;;;;;;;0.13;0.13;;;8.40;99.90;;;;;;4976224;28;20198;-70
2021/04/19 06:05:20;;;;;;;0.10;0.10;;;8.50;99.90;;;;;;4982800;28;20210;-69
2021/04/19 06:08:12;;;;;;;0.10;0.10;;;8.60;99.90;;;;;;4987113;28;20248;-69
2021/04/19 06:11:07;;;;;;;0.90;0.90;;;8.70;99.90;;;;;;4988637;28;20175;-70
2021/04/19 06:13:35;;;;;;;0.40;0.38;;;8.90;99.90;;;;;;4988297;28;20210;-70
2021/04/19 06:16:03;;;;;;;0.10;0.10;;;9.10;99.90;;;;;;4987315;28;20175;-70
2021/04/19 06:18:32;;;;;;;0.20;0.20;;;9.30;99.90;;;;;;4989201;28;20171;-70
2021/04/19 06:21:01;;;;;;;0.40;0.40;;;9.40;99.90;;;;;;4992573;28;20245;-69
2021/04/19 06:23:27;;;;;;;0.17;0.17;;;9.60;99.90;;;;;;4992475;28;20198;-70
2021/04/19 06:25:53;;;;;;;0.30;0.30;;;9.70;99.90;;;;;;4990997;28;20179;-69
2021/04/19 06:28:23;;;;;;;0.38;0.38;;;9.70;99.90;;;;;;4993123;28;20197;-73
2021/04/19 06:30:50;;;;;;;0.30;0.30;;;9.60;99.90;;;;;;4991071;28;20202;-70
2021/04/19 06:33:18;;;;;;;0.10;0.10;;;9.60;99.90;;;;;;4990803;28;20207;-70
2021/04/19 06:35:44;;;;;;;0.10;0.10;;;9.70;99.90;;;;;;4993278;28;20166;-70
2021/04/19 06:38:11;;;;;;;0.10;0.10;;;9.80;99.90;;;;;;4992611;28;20235;-69
2021/04/19 06:40:38;;;;;;;0.57;0.32;;;10.10;99.90;;;;;;4991027;28;20168;-70
2021/04/19 06:43:04;;;;;;;0.43;0.43;;;10.20;99.90;;;;;;4992171;28;20203;-70
2021/04/19 06:45:33;;;;;;;0.65;0.65;;;10.40;99.90;;;;;;4992337;28;20212;-69
2021/04/19 06:48:03;;;;;;;0.35;0.35;;;10.30;99.90;;;;;;4990797;28;20178;-71
2021/04/19 06:50:29;;;;;;;1.75;0.65;;;10.30;99.90;;;;;;4992204;28;20159;-70
2021/04/19 06:52:55;;;;;;;0.00;0.00;;;10.50;99.90;;;;;;4991818;28;20231;-69
2021/04/19 06:55:22;;;;;;;0.10;0.10;;;10.80;99.90;;;;;;4990185;28;20171;-69
2021/04/19 06:57:59;;;;;;;0.25;0.25;;;11.00;99.90;;;;;;4991623;28;20163;-69
2021/04/19 07:00:29;;;;;;;0.20;0.20;;;10.60;99.90;;;;;;4989420;28;20619;-69
2021/04/19 07:02:58;;;;;;;0.43;0.43;;;10.50;99.90;;;;;;4990197;28;20198;-69
2021/04/19 07:05:28;;;;;;;0.00;0.00;;;10.80;99.90;;;;;;4990329;28;20644;-69
2021/04/19 07:08:37;;;;;;;0.30;0.30;;;10.70;99.90;;;;;;4990977;28;20242;-68
2021/04/19 07:11:05;;;;;;;0.32;0.32;;;10.50;99.90;;;;;;4990864;28;20225;-68
2021/04/19 07:13:35;;;;;;;0.10;0.10;;;10.70;99.90;;;;;;4990757;28;20203;-70
2021/04/19 07:16:02;;;;;;;0.10;0.10;;;10.80;99.90;;;;;;4990507;28;20167;-70
2021/04/19 07:18:28;;;;;;;0.13;0.13;;;11.00;99.90;;;;;;4991147;28;20174;-69
2021/04/19 07:20:54;;;;;;;0.22;0.22;;;10.90;99.90;;;;;;4990350;28;20230;-69
2021/04/19 07:23:21;;;;;;;0.08;0.08;;;10.60;99.90;;;;;;4990283;28;20217;-69
2021/04/19 07:25:47;;;;;;;0.10;0.10;;;10.60;99.90;;;;;;4989478;28;20178;-69
2021/04/19 07:28:14;;;;;;;0.30;0.30;;;10.70;99.90;;;;;;4990653;28;20171;-69
2021/04/19 07:30:42;;;;;;;0.10;0.10;;;10.80;99.90;;;;;;4990819;28;20230;-69
2021/04/19 07:33:28;;;;;;;0.20;0.20;;;11.00;99.90;;;;;;4990725;28;20199;-70
2021/04/19 07:35:54;;;;;;;0.10;0.10;;;11.30;99.90;;;;;;4990538;28;20236;-68
2021/04/19 07:38:31;;;;;;;0.10;0.10;;;11.60;99.90;;;;;;4988810;28;20255;-68
2021/04/19 07:40:57;;;;;;;0.10;0.10;;;11.30;99.90;;;;;;4990290;28;20233;-69
2021/04/19 07:43:24;;;;;;;0.10;0.10;;;10.90;99.90;;;;;;4989516;28;20167;-70
2021/04/19 07:46:02;;;;;;;0.65;0.65;;;11.30;99.90;;;;;;4990588;28;20159;-69
2021/04/19 07:48:47;;;;;;;0.10;0.10;;;11.40;99.90;;;;;;4990553;28;20168;-70
2021/04/19 07:51:34;;;;;;;0.10;0.10;;;11.70;99.90;;;;;;4990115;28;20202;-68
2021/04/19 07:54:14;;;;;;;0.20;0.20;;;11.50;99.90;;;;;;4990044;28;20159;-68
2021/04/19 07:56:43;;;;;;;0.10;0.10;;;11.90;99.90;;;;;;4990260;28;20159;-69
2021/04/19 07:59:24;;;;;;;0.10;0.10;;;12.30;99.90;;;;;;4990211;28;20199;-69
2021/04/19 08:02:14;;;;;;;0.10;0.10;;;12.20;99.90;;;;;;4989959;28;20159;-70
2021/04/19 08:04:51;;;;;;;0.20;0.20;;;12.30;99.90;;;;;;4990147;28;20301;-69
2021/04/19 08:07:29;;;;;;;0.20;0.20;;;12.70;99.90;;;;;;4990276;28;20170;-69
2021/04/19 08:10:06;;;;;;;0.20;0.20;;;12.80;99.90;;;;;;4990014;28;20233;-69
2021/04/19 08:12:35;;;;;;;0.38;0.38;;;12.40;99.90;;;;;;4988366;28;20199;-69
2021/04/19 08:15:03;;;;;;;0.10;0.10;;;12.50;99.90;;;;;;4988223;28;20167;-69
2021/04/19 08:17:33;;;;;;;0.68;0.55;;;12.20;99.90;;;;;;4989599;28;20155;-69
2021/04/19 08:20:00;;;;;;;0.10;0.10;;;11.90;99.90;;;;;;4989623;28;20251;-69
2021/04/19 08:22:30;;;;;;;0.17;0.17;;;12.10;99.90;;;;;;4989690;28;20171;-69
2021/04/19 08:25:19;;;;;;;0.20;0.20;;;11.90;99.90;;;;;;4987691;28;20176;-68
2021/04/19 08:28:06;;;;;;;0.10;0.10;;;11.50;99.90;;;;;;4987979;28;20679;-70
2021/04/19 08:30:33;;;;;;;0.10;0.10;;;11.10;99.90;;;;;;4987491;28;20208;-71
2021/04/19 08:32:59;;;;;;;0.10;0.10;;;11.00;99.90;;;;;;4989515;28;20203;-69
2021/04/19 08:35:27;;;;;;;0.77;0.57;;;10.80;99.90;;;;;;4989560;28;20183;-69
2021/04/19 08:37:55;;;;;;;0.17;0.17;;;10.60;99.90;;;;;;4988393;28;20198;-68
2021/04/19 08:40:23;;;;;;;0.10;0.10;;;10.60;99.90;;;;;;4987207;28;20210;-68
2021/04/19 08:42:52;;;;;;;0.15;0.15;;;10.60;99.90;;;;;;4988831;28;20247;-68
2021/04/19 08:45:18;;;;;;;0.20;0.20;;;10.70;99.90;;;;;;4989343;28;20181;-69
2021/04/19 08:47:46;;;;;;;0.13;0.13;;;10.60;99.90;;;;;;4989009;28;20210;-68
2021/04/19 08:50:17;;;;;;;0.10;0.10;;;10.50;99.90;;;;;;4987823;28;20199;-72
2021/04/19 08:52:44;;;;;;;0.10;0.10;;;10.60;99.90;;;;;;4989278;28;20207;-69
2021/04/19 08:55:12;;;;;;;0.17;0.17;;;10.60;99.90;;;;;;4989227;28;20183;-69
2021/04/19 08:57:42;;;;;;;0.10;0.10;;;10.70;99.90;;;;;;4988695;28;20245;-69
2021/04/19 09:00:09;;;;;;;0.10;0.10;;;10.70;99.90;;;;;;4988651;28;20218;-69
2021/04/19 09:02:35;;;;;;;0.40;0.40;;;10.70;99.90;;;;;;4988848;28;20294;-69
2021/04/19 09:05:06;;;;;;;0.20;0.20;;;10.60;99.90;;;;;;4987353;28;20178;-69
2021/04/19 09:07:34;;;;;;;0.15;0.15;;;10.80;99.90;;;;;;4987533;28;20177;-70
2021/04/19 09:10:00;;;;;;;0.00;0.00;;;11.10;99.90;;;;;;4989048;28;20199;-70
2021/04/19 09:12:28;;;;;;;0.10;0.10;;;11.10;99.90;;;;;;4989103;28;20206;-69
2021/04/19 09:15:13;;;;;;;0.50;0.50;;;11.40;99.90;;;;;;4989025;28;20160;-69
2021/04/19 09:17:40;;;;;;;0.10;0.10;;;11.70;99.90;;;;;;4988041;28;20482;-69
2021/04/19 09:20:09;;;;;;;0.10;0.10;;;11.90;99.90;;;;;;4987409;28;20231;-68
2021/04/19 09:22:36;;;;;;;0.47;0.47;;;11.80;99.90;;;;;;4988965;28;20175;-70
2021/04/19 09:25:03;;;;;;;0.10;0.10;;;11.80;99.90;;;;;;4989020;28;20163;-69
2021/04/19 09:27:54;;;;;;;0.10;0.10;;;12.00;99.90;;;;;;4988893;28;20175;-69
2021/04/19 09:30:19;;;;;;;0.10;0.10;;;12.10;99.90;;;;;;4987491;28;20213;-69
2021/04/19 09:32:46;;;;;;;0.10;0.10;;;12.00;99.90;;;;;;4989006;28;20266;-69
2021/04/19 09:38:08;;;;;;;0.32;0.32;;;12.60;99.90;;;;;;4988308;28;20606;-70
2021/04/19 09:40:55;;;;;;;1.38;0.20;;;12.70;99.90;;;;;;4988349;28;20646;-69
2021/04/19 09:43:31;;;;;;;0.30;0.30;;;13.20;99.90;;;;;;4987205;28;20269;-69
2021/04/19 09:46:02;;;;;;;0.30;0.30;;;13.60;99.90;;;;;;4987363;28;20167;-69
2021/04/19 09:48:27;;;;;;;0.75;0.75;;;13.90;99.90;;;;;;4988558;28;20175;-69
2021/04/19 09:50:53;;;;;;;0.10;0.10;;;14.40;99.90;;;;;;4988465;28;20202;-70
2021/04/19 09:53:19;;;;;;;0.10;0.10;;;14.40;99.90;;;;;;4992388;28;20246;-70
2021/04/19 09:55:45;;;;;;;0.08;0.08;;;15.50;99.90;;;;;;4991342;28;20187;-70
2021/04/19 09:58:13;;;;;;;0.17;0.17;;;15.90;99.90;;;;;;4992589;28;20175;-70
2021/04/19 10:00:39;;;;;;;0.10;0.10;;;16.20;99.90;;;;;;4992329;28;20202;-70
2021/04/19 10:03:06;;;;;;;2.35;1.17;;;16.80;99.90;;;;;;4991097;28;20172;-69
2021/04/19 10:05:33;;;;;;;0.10;0.10;;;16.30;99.90;;;;;;4992277;28;20163;-69
2021/04/19 10:08:04;;;;;;;0.35;0.35;;;15.90;99.90;;;;;;4992088;28;20169;-69
2021/04/19 10:10:31;;;;;;;0.32;0.32;;;15.90;99.90;;;;;;4991997;28;20217;-69
2021/04/19 10:12:57;;;;;;;0.10;0.10;;;15.60;99.90;;;;;;4990557;28;20199;-69
2021/04/19 10:15:25;;;;;;;0.52;0.52;;;13.80;99.90;;;;;;4990937;28;20163;-69
2021/04/19 10:17:51;;;;;;;0.20;0.20;;;13.20;99.90;;;;;;4990770;28;20483;-69
2021/04/19 10:20:26;;;;;;;0.10;0.10;;;13.70;99.90;;;;;;4991995;28;20223;-69
2021/04/19 10:23:12;;;;;;;1.77;0.75;;;14.10;99.90;;;;;;4992144;28;20477;-70
2021/04/19 10:25:53;;;;;;;0.43;0.43;;;13.90;99.90;;;;;;4990405;28;20178;-69
2021/04/19 10:28:46;;;;;;;0.10;0.10;;;13.60;99.90;;;;;;4990515;28;20174;-69
2021/04/19 10:31:19;;;;;;;0.10;0.10;;;13.60;99.90;;;;;;4990725;28;20292;-69
2021/04/19 10:33:48;;;;;;;0.10;0.10;;;13.50;99.90;;;;;;4990159;28;20255;-70
2021/04/19 10:36:26;;;;;;;0.17;0.17;;;13.40;99.90;;;;;;4991981;28;20166;-70
2021/04/19 10:38:55;;;;;;;0.20;0.20;;;12.80;99.90;;;;;;4991633;28;20167;-69
2021/04/19 10:41:30;;;;;;;0.10;0.10;;;12.50;99.90;;;;;;4990202;28;20163;-69
2021/04/19 10:43:57;;;;;;;0.77;0.65;;;12.00;99.90;;;;;;4990188;28;20179;-70
2021/04/19 10:46:43;;;;;;;0.55;0.55;;;11.70;99.90;;;;;;4991733;28;20179;-70
2021/04/19 10:49:21;;;;;;;0.10;0.10;;;11.60;99.90;;;;;;4991649;28;20664;-70
2021/04/19 10:52:01;;;;;;;0.40;0.40;;;11.60;99.90;;;;;;4991833;28;20171;-70
2021/04/19 10:54:35;;;;;;;0.43;0.43;;;11.70;99.90;;;;;;4991835;28;20152;-70
2021/04/19 10:57:02;;;;;;;0.85;0.85;;;11.60;99.90;;;;;;4991598;28;20170;-69
2021/04/19 10:59:29;;;;;;;0.13;0.13;;;11.60;99.90;;;;;;4991428;28;20222;-71
2021/04/19 11:02:02;;;;;;;0.35;0.35;;;11.50;99.90;;;;;;4989847;28;20168;-69
2021/04/19 11:04:29;;;;;;;0.80;0.80;;;11.50;99.90;;;;;;4990191;28;20151;-69
2021/04/19 11:07:24;;;;;;;0.25;0.25;;;11.70;99.90;;;;;;4989977;28;20222;-69
2021/04/19 11:10:26;;;;;;;0.10;0.10;;;11.80;99.90;;;;;;4991059;28;20199;-69
2021/04/19 11:12:59;;;;;;;0.10;0.10;;;11.80;99.90;;;;;;4953496;29;20365;-69
2021/04/19 11:15:33;;;;;;;0.10;0.10;;;12.00;99.90;;;;;;4969540;29;20204;-69
2021/04/19 11:18:01;;;;;;;0.52;0.52;;;12.00;99.90;;;;;;4953475;29;20208;-68
2021/04/19 11:20:30;;;;;;;0.50;0.50;;;11.90;99.90;;;;;;4969257;29;20243;-68
2021/04/19 11:22:59;;;;;;;1.05;0.52;;;11.80;99.90;;;;;;4969147;29;20199;-68
2021/04/19 11:25:31;;;;;;;0.35;0.35;;;11.50;99.90;;;;;;4969445;29;20160;-68
2021/04/19 11:28:16;;;;;;;2.22;1.85;;;11.50;99.90;;;;;;4969436;29;20216;-69
2021/04/19 11:30:43;;;;;;;0.75;0.70;;;11.80;99.90;;;;;;4969331;29;20242;-69
2021/04/19 11:33:14;;;;;;;0.20;0.20;;;11.90;99.90;;;;;;4967885;29;20214;-69
2021/04/19 11:35:47;;;;;;;0.52;0.52;;;12.10;99.90;;;;;;4969326;29;20540;-70
2021/04/19 11:38:22;;;;;;;0.20;0.20;;;12.30;99.90;;;;;;4969216;29;20299;-70
2021/04/19 11:40:51;;;;;;;1.73;1.63;;;12.20;99.90;;;;;;4952850;29;20207;-70
2021/04/19 11:43:20;;;;;;;0.50;0.40;;;12.30;99.90;;;;;;4952922;29;20219;-70
2021/04/19 11:45:46;;;;;;;2.20;0.75;;;12.00;99.90;;;;;;4954205;28;20169;-70
2021/04/19 11:48:13;;;;;;;0.65;0.65;;;11.60;99.90;;;;;;4990678;28;20164;-70
2021/04/19 11:50:40;;;;;;;0.50;0.28;;;11.30;99.90;;;;;;4990423;28;20187;-68
2021/04/19 11:53:07;;;;;;;0.40;0.40;;;10.90;99.90;;;;;;4990629;28;20183;-69
2021/04/19 11:55:33;;;;;;;0.28;0.28;;;10.80;99.90;;;;;;4989045;28;20167;-69
2021/04/19 11:57:59;;;;;;;0.10;0.10;;;10.80;99.90;;;;;;4990563;28;20163;-69
2021/04/19 12:00:27;;;;;;;0.38;0.32;;;10.80;99.90;;;;;;4990007;28;20222;-68
2021/04/19 12:02:53;;;;;;;0.05;0.05;;;10.90;99.90;;;;;;4990354;28;20281;-68
2021/04/19 12:05:20;;;;;;;0.22;0.22;;;10.90;99.90;;;;;;4990277;28;20159;-68
2021/04/19 12:07:46;;;;;;;0.20;0.20;;;11.20;99.90;;;;;;4990156;28;20187;-69
2021/04/19 12:10:12;;;;;;;0.40;0.40;;;11.60;99.90;;;;;;4988552;28;20195;-68
2021/04/19 12:12:38;;;;;;;0.30;0.30;;;11.90;99.90;;;;;;4988484;28;20203;-68
2021/04/19 12:15:05;;;;;;;0.10;0.10;;;12.10;99.90;;;;;;4989691;28;20190;-68
2021/04/19 12:17:31;;;;;;;0.30;0.30;;;12.20;99.90;;;;;;4988778;28;20198;-68
2021/04/19 12:19:57;;;;;;;0.30;0.30;;;12.40;99.90;;;;;;4989736;28;20219;-68
2021/04/19 12:22:23;;;;;;;0.10;0.10;;;12.30;99.90;;;;;;4989712;28;20275;-68
2021/04/19 12:24:49;;;;;;;0.10;0.10;;;12.60;99.90;;;;;;4989697;28;20238;-69
2021/04/19 12:27:15;;;;;;;0.10;0.10;;;12.70;99.90;;;;;;4989966;28;20190;-68
2021/04/19 12:29:41;;;;;;;0.30;0.30;;;13.10;99.90;;;;;;4988353;28;20211;-69
2021/04/19 12:32:07;;;;;;;1.38;1.27;;;13.20;99.90;;;;;;4988102;28;20264;-69
2021/04/19 12:34:32;;;;;;;0.50;0.50;;;13.20;99.90;;;;;;4989701;28;20645;-68
2021/04/19 12:36:58;;;;;;;0.20;0.20;;;12.80;99.90;;;;;;4988133;28;20170;-69
2021/04/19 12:39:24;;;;;;;0.38;0.38;;;12.70;99.90;;;;;;4989224;28;20357;-69
2021/04/19 12:41:50;;;;;;;0.20;0.20;;;12.60;99.90;;;;;;4988232;28;20226;-69
2021/04/19 12:44:16;;;;;;;0.73;0.73;;;12.60;99.90;;;;;;4989523;28;20158;-70
2021/04/19 12:46:43;;;;;;;0.28;0.28;;;12.70;99.90;;;;;;4989626;28;20168;-69
2021/04/19 12:49:09;;;;;;;0.60;0.60;;;12.70;99.90;;;;;;4987878;28;20195;-68
2021/04/19 12:51:36;;;;;;;0.20;0.20;;;12.90;99.90;;;;;;4988770;28;20182;-67
2021/04/19 12:54:02;;;;;;;3.47;1.00;;;13.00;99.90;;;;;;4989173;28;20206;-69
2021/04/19 12:56:27;;;;;;;0.10;0.10;;;13.00;99.90;;;;;;4987867;28;20171;-70
2021/04/19 12:58:54;;;;;;;0.35;0.35;;;12.90;99.90;;;;;;4989075;28;20243;-70
2021/04/19 13:01:19;;;;;;;0.52;0.52;;;12.80;99.90;;;;;;4988450;28;20167;-69
2021/04/19 13:03:45;;;;;;;0.30;0.30;;;12.60;99.90;;;;;;4987558;28;20171;-69
2021/04/19 13:06:11;;;;;;;0.38;0.38;;;12.40;99.90;;;;;;4988652;28;20246;-68
2021/04/19 13:08:37;;;;;;;0.20;0.20;;;12.30;99.90;;;;;;4988897;28;20180;-69
2021/04/19 13:11:03;;;;;;;2.08;1.58;;;12.60;99.90;;;;;;4988849;28;20194;-69